sensor_id;sensor_type;location;lat;lon;timestamp;temperature;humidity
70107;DHT22;57473;37.508;15.080;2023-01-10T00:01:40;13.00;74.10
70107;DHT22;57473;37.508;15.080;2023-01-10T00:04:08;13.00;74.50
70107;DHT22;57473;37.508;15.080;2023-01-10T00:06:41;12.90;74.10
70107;DHT22;57473;37.508;15.080;2023-01-10T00:09:09;12.90;73.80
70107;DHT22;57473;37.508;15.080;2023-01-10T00:11:37;12.90;73.70
70107;DHT22;57473;37.508;15.080;2023-01-10T00:14:25;12.80;73.70
70107;DHT22;57473;37.508;15.080;2023-01-10T00:16:52;12.80;73.60
70107;DHT22;57473;37.508;15.080;2023-01-10T00:19:19;12.80;73.90
70107;DHT22;57473;37.508;15.080;2023-01-10T00:21:47;12.70;73.70
70107;DHT22;57473;37.508;15.080;2023-01-10T00:24:14;12.70;73.40
70107;DHT22;57473;37.508;15.080;2023-01-10T00:26:46;12.70;73.20
70107;DHT22;57473;37.508;15.080;2023-01-10T00:29:25;12.70;73.10
70107;DHT22;57473;37.508;15.080;2023-01-10T00:31:54;12.70;72.80
70107;DHT22;57473;37.508;15.080;2023-01-10T00:34:22;12.70;72.80
70107;DHT22;57473;37.508;15.080;2023-01-10T00:36:50;12.70;72.60
70107;DHT22;57473;37.508;15.080;2023-01-10T00:39:17;12.70;72.50
70107;DHT22;57473;37.508;15.080;2023-01-10T00:41:47;12.70;72.50
70107;DHT22;57473;37.508;15.080;2023-01-10T00:44:34;12.60;72.80
70107;DHT22;57473;37.508;15.080;2023-01-10T00:47:01;12.60;73.20
70107;DHT22;57473;37.508;15.080;2023-01-10T00:49:29;12.50;73.60
70107;DHT22;57473;37.508;15.080;2023-01-10T00:51:56;12.50;74.40
70107;DHT22;57473;37.508;15.080;2023-01-10T00:54:26;12.40;74.60
70107;DHT22;57473;37.508;15.080;2023-01-10T00:56:53;12.40;75.20
70107;DHT22;57473;37.508;15.080;2023-01-10T00:59:21;12.30;75.40
70107;DHT22;57473;37.508;15.080;2023-01-10T01:01:52;12.20;75.80
70107;DHT22;57473;37.508;15.080;2023-01-10T01:04:21;12.10;75.90
70107;DHT22;57473;37.508;15.080;2023-01-10T01:06:51;12.10;75.60
70107;DHT22;57473;37.508;15.080;2023-01-10T01:09:18;12.10;75.40
70107;DHT22;57473;37.508;15.080;2023-01-10T01:11:48;12.10;75.10
70107;DHT22;57473;37.508;15.080;2023-01-10T01:14:16;12.00;74.90
70107;DHT22;57473;37.508;15.080;2023-01-10T01:16:46;12.00;74.80
70107;DHT22;57473;37.508;15.080;2023-01-10T01:19:13;12.00;74.50
70107;DHT22;57473;37.508;15.080;2023-01-10T01:21:41;12.00;74.60
70107;DHT22;57473;37.508;15.080;2023-01-10T01:24:10;12.00;74.40
70107;DHT22;57473;37.508;15.080;2023-01-10T01:26:57;11.90;74.40
70107;DHT22;57473;37.508;15.080;2023-01-10T01:29:25;11.90;74.50
70107;DHT22;57473;37.508;15.080;2023-01-10T01:32:08;11.90;74.30
70107;DHT22;57473;37.508;15.080;2023-01-10T01:34:36;11.90;74.40
70107;DHT22;57473;37.508;15.080;2023-01-10T01:37:03;11.90;74.20
70107;DHT22;57473;37.508;15.080;2023-01-10T01:39:30;11.80;74.30
70107;DHT22;57473;37.508;15.080;2023-01-10T01:41:58;11.80;74.10
70107;DHT22;57473;37.508;15.080;2023-01-10T01:44:31;11.80;74.20
70107;DHT22;57473;37.508;15.080;2023-01-10T01:47:07;11.80;74.30
70107;DHT22;57473;37.508;15.080;2023-01-10T01:49:42;11.80;74.50
70107;DHT22;57473;37.508;15.080;2023-01-10T01:52:22;11.70;74.60
70107;DHT22;57473;37.508;15.080;2023-01-10T01:54:54;11.70;74.60
70107;DHT22;57473;37.508;15.080;2023-01-10T01:57:26;11.60;75.10
70107;DHT22;57473;37.508;15.080;2023-01-10T01:59:54;11.60;75.40
70107;DHT22;57473;37.508;15.080;2023-01-10T02:02:29;11.50;75.90
70107;DHT22;57473;37.508;15.080;2023-01-10T02:07:27;11.40;76.50
70107;DHT22;57473;37.508;15.080;2023-01-10T02:12:32;11.50;74.90
70107;DHT22;57473;37.508;15.080;2023-01-10T02:14:59;11.60;74.10
70107;DHT22;57473;37.508;15.080;2023-01-10T02:17:28;11.70;73.60
70107;DHT22;57473;37.508;15.080;2023-01-10T02:20:02;11.70;73.40
70107;DHT22;57473;37.508;15.080;2023-01-10T02:36:55;11.90;71.90
70107;DHT22;57473;37.508;15.080;2023-01-10T02:39:54;12.00;71.30
70107;DHT22;57473;37.508;15.080;2023-01-10T02:42:35;12.00;70.90
70107;DHT22;57473;37.508;15.080;2023-01-10T02:45:20;12.00;70.80
70107;DHT22;57473;37.508;15.080;2023-01-10T02:47:49;12.00;70.90
70107;DHT22;57473;37.508;15.080;2023-01-10T02:52:59;12.00;70.30
70107;DHT22;57473;37.508;15.080;2023-01-10T03:04:29;12.00;70.70
70107;DHT22;57473;37.508;15.080;2023-01-10T03:07:42;11.90;71.00
70107;DHT22;57473;37.508;15.080;2023-01-10T03:12:46;11.90;71.10
70107;DHT22;57473;37.508;15.080;2023-01-10T03:15:17;11.90;71.00
70107;DHT22;57473;37.508;15.080;2023-01-10T03:17:49;11.90;71.10
70107;DHT22;57473;37.508;15.080;2023-01-10T03:20:19;11.90;71.30
70107;DHT22;57473;37.508;15.080;2023-01-10T03:22:47;11.90;71.40
70107;DHT22;57473;37.508;15.080;2023-01-10T03:25:16;11.90;71.50
70107;DHT22;57473;37.508;15.080;2023-01-10T03:27:53;11.80;71.60
70107;DHT22;57473;37.508;15.080;2023-01-10T03:30:43;11.80;71.80
70107;DHT22;57473;37.508;15.080;2023-01-10T03:33:16;11.80;72.30
70107;DHT22;57473;37.508;15.080;2023-01-10T03:36:03;11.70;72.60
70107;DHT22;57473;37.508;15.080;2023-01-10T03:43:40;11.60;73.20
70107;DHT22;57473;37.508;15.080;2023-01-10T03:46:50;11.60;73.60
70107;DHT22;57473;37.508;15.080;2023-01-10T03:49:22;11.50;73.90
70107;DHT22;57473;37.508;15.080;2023-01-10T03:51:51;11.50;73.50
70107;DHT22;57473;37.508;15.080;2023-01-10T03:54:19;11.50;73.00
70107;DHT22;57473;37.508;15.080;2023-01-10T03:56:48;11.50;72.80
70107;DHT22;57473;37.508;15.080;2023-01-10T03:59:25;11.50;72.20
70107;DHT22;57473;37.508;15.080;2023-01-10T04:01:53;11.60;70.90
70107;DHT22;57473;37.508;15.080;2023-01-10T04:04:21;11.60;69.90
70107;DHT22;57473;37.508;15.080;2023-01-10T04:06:48;11.60;69.40
70107;DHT22;57473;37.508;15.080;2023-01-10T04:09:16;11.60;69.00
70107;DHT22;57473;37.508;15.080;2023-01-10T04:11:43;11.60;68.60
70107;DHT22;57473;37.508;15.080;2023-01-10T04:14:10;11.60;67.90
70107;DHT22;57473;37.508;15.080;2023-01-10T04:16:38;11.60;67.30
70107;DHT22;57473;37.508;15.080;2023-01-10T04:19:05;11.60;66.70
70107;DHT22;57473;37.508;15.080;2023-01-10T04:21:33;11.60;66.10
70107;DHT22;57473;37.508;15.080;2023-01-10T04:24:00;11.60;66.10
70107;DHT22;57473;37.508;15.080;2023-01-10T04:26:27;11.60;64.80
70107;DHT22;57473;37.508;15.080;2023-01-10T04:28:55;11.70;64.30
70107;DHT22;57473;37.508;15.080;2023-01-10T04:31:22;11.80;64.30
70107;DHT22;57473;37.508;15.080;2023-01-10T04:33:50;11.80;64.20
70107;DHT22;57473;37.508;15.080;2023-01-10T04:36:17;11.80;64.40
70107;DHT22;57473;37.508;15.080;2023-01-10T04:38:44;11.70;64.50
70107;DHT22;57473;37.508;15.080;2023-01-10T04:41:12;11.70;64.40
70107;DHT22;57473;37.508;15.080;2023-01-10T04:43:39;11.60;64.40
70107;DHT22;57473;37.508;15.080;2023-01-10T04:46:07;11.60;63.50
70107;DHT22;57473;37.508;15.080;2023-01-10T04:48:34;11.60;62.60
70107;DHT22;57473;37.508;15.080;2023-01-10T04:51:03;11.70;61.90
70107;DHT22;57473;37.508;15.080;2023-01-10T04:53:30;11.70;62.20
70107;DHT22;57473;37.508;15.080;2023-01-10T04:56:06;11.70;62.20
70107;DHT22;57473;37.508;15.080;2023-01-10T04:58:35;11.70;62.20
70107;DHT22;57473;37.508;15.080;2023-01-10T05:01:12;11.70;62.70
70107;DHT22;57473;37.508;15.080;2023-01-10T05:03:40;11.70;63.00
70107;DHT22;57473;37.508;15.080;2023-01-10T05:06:08;11.60;63.50
70107;DHT22;57473;37.508;15.080;2023-01-10T05:08:35;11.60;63.60
70107;DHT22;57473;37.508;15.080;2023-01-10T05:11:06;11.60;63.60
70107;DHT22;57473;37.508;15.080;2023-01-10T05:13:33;11.40;64.70
70107;DHT22;57473;37.508;15.080;2023-01-10T05:16:00;11.30;65.00
70107;DHT22;57473;37.508;15.080;2023-01-10T05:18:28;11.20;65.60
70107;DHT22;57473;37.508;15.080;2023-01-10T05:20:59;11.20;66.10
70107;DHT22;57473;37.508;15.080;2023-01-10T05:23:27;11.10;66.70
70107;DHT22;57473;37.508;15.080;2023-01-10T05:25:55;11.00;67.20
70107;DHT22;57473;37.508;15.080;2023-01-10T05:28:23;11.00;67.70
70107;DHT22;57473;37.508;15.080;2023-01-10T05:30:50;11.00;67.60
70107;DHT22;57473;37.508;15.080;2023-01-10T05:33:18;10.90;67.30
70107;DHT22;57473;37.508;15.080;2023-01-10T05:35:45;10.90;67.30
70107;DHT22;57473;37.508;15.080;2023-01-10T05:38:12;10.90;67.70
70107;DHT22;57473;37.508;15.080;2023-01-10T05:40:39;10.90;67.80
70107;DHT22;57473;37.508;15.080;2023-01-10T05:43:07;10.80;68.20
70107;DHT22;57473;37.508;15.080;2023-01-10T05:45:34;10.80;67.50
70107;DHT22;57473;37.508;15.080;2023-01-10T05:48:02;10.80;67.10
70107;DHT22;57473;37.508;15.080;2023-01-10T05:50:30;10.80;66.60
70107;DHT22;57473;37.508;15.080;2023-01-10T05:52:59;10.90;65.90
70107;DHT22;57473;37.508;15.080;2023-01-10T05:55:31;10.90;65.50
70107;DHT22;57473;37.508;15.080;2023-01-10T05:57:58;11.00;65.20
70107;DHT22;57473;37.508;15.080;2023-01-10T06:00:26;11.00;64.80
70107;DHT22;57473;37.508;15.080;2023-01-10T06:02:54;11.10;64.60
70107;DHT22;57473;37.508;15.080;2023-01-10T06:05:23;11.20;64.40
70107;DHT22;57473;37.508;15.080;2023-01-10T06:07:50;11.20;64.10
70107;DHT22;57473;37.508;15.080;2023-01-10T06:10:18;11.30;63.60
70107;DHT22;57473;37.508;15.080;2023-01-10T06:12:45;11.40;62.40
70107;DHT22;57473;37.508;15.080;2023-01-10T06:15:15;11.50;61.80
70107;DHT22;57473;37.508;15.080;2023-01-10T06:17:43;11.60;61.90
70107;DHT22;57473;37.508;15.080;2023-01-10T06:20:13;11.40;63.10
70107;DHT22;57473;37.508;15.080;2023-01-10T06:22:42;10.90;66.30
70107;DHT22;57473;37.508;15.080;2023-01-10T06:25:11;10.50;69.50
70107;DHT22;57473;37.508;15.080;2023-01-10T06:27:42;10.20;69.90
70107;DHT22;57473;37.508;15.080;2023-01-10T06:30:11;10.10;70.30
70107;DHT22;57473;37.508;15.080;2023-01-10T06:32:39;10.00;70.50
70107;DHT22;57473;37.508;15.080;2023-01-10T06:35:08;10.00;70.30
70107;DHT22;57473;37.508;15.080;2023-01-10T06:37:36;9.90;71.20
70107;DHT22;57473;37.508;15.080;2023-01-10T06:40:04;9.90;71.30
70107;DHT22;57473;37.508;15.080;2023-01-10T06:42:32;9.90;72.40
70107;DHT22;57473;37.508;15.080;2023-01-10T06:44:59;9.90;72.50
70107;DHT22;57473;37.508;15.080;2023-01-10T06:47:26;9.90;72.90
70107;DHT22;57473;37.508;15.080;2023-01-10T06:49:54;9.90;73.30
70107;DHT22;57473;37.508;15.080;2023-01-10T06:52:21;9.90;73.40
70107;DHT22;57473;37.508;15.080;2023-01-10T06:54:49;9.90;73.20
70107;DHT22;57473;37.508;15.080;2023-01-10T06:57:19;10.10;73.10
70107;DHT22;57473;37.508;15.080;2023-01-10T06:59:46;10.20;73.90
70107;DHT22;57473;37.508;15.080;2023-01-10T07:02:14;10.20;75.00
70107;DHT22;57473;37.508;15.080;2023-01-10T07:04:41;10.20;76.60
70107;DHT22;57473;37.508;15.080;2023-01-10T07:07:08;10.20;76.20
70107;DHT22;57473;37.508;15.080;2023-01-10T07:09:36;10.10;76.50
70107;DHT22;57473;37.508;15.080;2023-01-10T07:12:03;10.20;76.00
70107;DHT22;57473;37.508;15.080;2023-01-10T07:14:40;10.20;76.70
70107;DHT22;57473;37.508;15.080;2023-01-10T07:17:11;10.20;76.50
70107;DHT22;57473;37.508;15.080;2023-01-10T07:19:39;10.30;76.60
70107;DHT22;57473;37.508;15.080;2023-01-10T07:22:11;10.30;76.00
70107;DHT22;57473;37.508;15.080;2023-01-10T07:24:43;10.50;74.90
70107;DHT22;57473;37.508;15.080;2023-01-10T07:27:10;10.60;74.40
70107;DHT22;57473;37.508;15.080;2023-01-10T07:29:40;10.70;72.30
70107;DHT22;57473;37.508;15.080;2023-01-10T07:32:07;10.80;72.60
70107;DHT22;57473;37.508;15.080;2023-01-10T07:34:40;10.90;72.60
70107;DHT22;57473;37.508;15.080;2023-01-10T07:37:08;11.00;71.80
70107;DHT22;57473;37.508;15.080;2023-01-10T07:39:35;11.20;71.80
70107;DHT22;57473;37.508;15.080;2023-01-10T07:42:02;11.40;70.60
70107;DHT22;57473;37.508;15.080;2023-01-10T07:44:30;11.60;69.70
70107;DHT22;57473;37.508;15.080;2023-01-10T07:46:58;11.70;69.60
70107;DHT22;57473;37.508;15.080;2023-01-10T07:49:26;11.70;72.00
70107;DHT22;57473;37.508;15.080;2023-01-10T07:51:53;11.60;75.40
70107;DHT22;57473;37.508;15.080;2023-01-10T07:54:20;11.40;76.70
70107;DHT22;57473;37.508;15.080;2023-01-10T07:56:48;11.20;77.60
70107;DHT22;57473;37.508;15.080;2023-01-10T07:59:16;11.30;77.60
70107;DHT22;57473;37.508;15.080;2023-01-10T08:01:43;11.40;78.10
70107;DHT22;57473;37.508;15.080;2023-01-10T08:04:11;11.40;77.80
70107;DHT22;57473;37.508;15.080;2023-01-10T08:06:38;11.40;80.50
70107;DHT22;57473;37.508;15.080;2023-01-10T08:09:06;11.10;83.90
70107;DHT22;57473;37.508;15.080;2023-01-10T08:11:33;10.80;84.90
70107;DHT22;57473;37.508;15.080;2023-01-10T08:14:01;10.50;87.70
70107;DHT22;57473;37.508;15.080;2023-01-10T08:16:29;10.20;91.20
70107;DHT22;57473;37.508;15.080;2023-01-10T08:18:57;9.80;93.80
70107;DHT22;57473;37.508;15.080;2023-01-10T08:21:24;9.50;98.90
70107;DHT22;57473;37.508;15.080;2023-01-10T08:23:53;9.20;99.90
70107;DHT22;57473;37.508;15.080;2023-01-10T08:26:20;9.10;99.90
70107;DHT22;57473;37.508;15.080;2023-01-10T08:28:49;9.10;99.90
70107;DHT22;57473;37.508;15.080;2023-01-10T08:31:16;9.10;99.90
70107;DHT22;57473;37.508;15.080;2023-01-10T08:33:44;9.10;99.90
70107;DHT22;57473;37.508;15.080;2023-01-10T08:36:19;9.10;99.90
70107;DHT22;57473;37.508;15.080;2023-01-10T08:38:48;9.00;99.90
70107;DHT22;57473;37.508;15.080;2023-01-10T08:41:25;9.00;99.90
70107;DHT22;57473;37.508;15.080;2023-01-10T08:43:53;8.90;99.90
70107;DHT22;57473;37.508;15.080;2023-01-10T08:46:23;8.80;99.90
70107;DHT22;57473;37.508;15.080;2023-01-10T08:49:05;8.80;99.90
70107;DHT22;57473;37.508;15.080;2023-01-10T08:51:33;8.80;99.90
70107;DHT22;57473;37.508;15.080;2023-01-10T08:54:03;8.90;99.90
70107;DHT22;57473;37.508;15.080;2023-01-10T08:56:34;8.90;99.90
70107;DHT22;57473;37.508;15.080;2023-01-10T08:59:09;9.10;99.90
70107;DHT22;57473;37.508;15.080;2023-01-10T09:01:36;9.20;99.90
70107;DHT22;57473;37.508;15.080;2023-01-10T09:04:04;9.20;99.90
70107;DHT22;57473;37.508;15.080;2023-01-10T09:06:35;9.20;99.90
70107;DHT22;57473;37.508;15.080;2023-01-10T09:09:12;9.10;99.90
70107;DHT22;57473;37.508;15.080;2023-01-10T09:11:47;9.00;99.90
70107;DHT22;57473;37.508;15.080;2023-01-10T09:14:15;9.00;99.90
70107;DHT22;57473;37.508;15.080;2023-01-10T09:16:42;8.90;99.90
70107;DHT22;57473;37.508;15.080;2023-01-10T09:19:10;8.80;99.90
70107;DHT22;57473;37.508;15.080;2023-01-10T09:21:42;8.70;99.90
70107;DHT22;57473;37.508;15.080;2023-01-10T09:24:14;8.70;99.90
70107;DHT22;57473;37.508;15.080;2023-01-10T09:26:41;8.70;99.90
70107;DHT22;57473;37.508;15.080;2023-01-10T09:29:09;8.70;99.90
70107;DHT22;57473;37.508;15.080;2023-01-10T09:31:38;8.70;99.90
70107;DHT22;57473;37.508;15.080;2023-01-10T09:34:05;8.80;99.90
70107;DHT22;57473;37.508;15.080;2023-01-10T09:36:36;8.80;99.90
70107;DHT22;57473;37.508;15.080;2023-01-10T09:39:03;8.90;99.90
70107;DHT22;57473;37.508;15.080;2023-01-10T09:45:04;9.00;99.90
70107;DHT22;57473;37.508;15.080;2023-01-10T09:47:52;9.00;99.90
70107;DHT22;57473;37.508;15.080;2023-01-10T09:50:58;9.00;99.90
70107;DHT22;57473;37.508;15.080;2023-01-10T09:53:35;8.90;99.90
70107;DHT22;57473;37.508;15.080;2023-01-10T09:56:13;8.80;99.90
70107;DHT22;57473;37.508;15.080;2023-01-10T09:58:54;8.90;99.90
70107;DHT22;57473;37.508;15.080;2023-01-10T10:01:51;8.80;99.90
70107;DHT22;57473;37.508;15.080;2023-01-10T10:04:36;8.70;99.90
70107;DHT22;57473;37.508;15.080;2023-01-10T10:07:14;8.70;99.90
70107;DHT22;57473;37.508;15.080;2023-01-10T10:09:42;8.60;99.90
70107;DHT22;57473;37.508;15.080;2023-01-10T10:12:36;8.60;99.90
70107;DHT22;57473;37.508;15.080;2023-01-10T10:18:09;8.60;99.90
70107;DHT22;57473;37.508;15.080;2023-01-10T10:20:57;8.60;99.90
70107;DHT22;57473;37.508;15.080;2023-01-10T10:34:45;9.90;99.90
70107;DHT22;57473;37.508;15.080;2023-01-10T10:37:38;10.00;99.00
70107;DHT22;57473;37.508;15.080;2023-01-10T10:40:19;10.10;97.20
70107;DHT22;57473;37.508;15.080;2023-01-10T10:42:51;10.20;95.40
70107;DHT22;57473;37.508;15.080;2023-01-10T10:45:34;10.30;96.20
70107;DHT22;57473;37.508;15.080;2023-01-10T10:48:23;10.50;97.30
70107;DHT22;57473;37.508;15.080;2023-01-10T10:51:15;10.70;95.10
70107;DHT22;57473;37.508;15.080;2023-01-10T10:53:43;10.90;93.40
70107;DHT22;57473;37.508;15.080;2023-01-10T10:56:16;11.10;96.20
70107;DHT22;57473;37.508;15.080;2023-01-10T10:58:48;11.10;95.60
70107;DHT22;57473;37.508;15.080;2023-01-10T11:01:18;11.00;96.10
70107;DHT22;57473;37.508;15.080;2023-01-10T11:06:24;10.90;96.10
70107;DHT22;57473;37.508;15.080;2023-01-10T11:08:59;10.70;96.50
70107;DHT22;57473;37.508;15.080;2023-01-10T11:11:33;10.70;99.70
70107;DHT22;57473;37.508;15.080;2023-01-10T11:14:05;10.70;95.90
70107;DHT22;57473;37.508;15.080;2023-01-10T11:16:36;10.70;98.70
70107;DHT22;57473;37.508;15.080;2023-01-10T11:19:09;10.90;96.70
70107;DHT22;57473;37.508;15.080;2023-01-10T11:21:40;11.00;92.20
70107;DHT22;57473;37.508;15.080;2023-01-10T11:24:31;11.20;89.10
70107;DHT22;57473;37.508;15.080;2023-01-10T11:27:16;11.40;87.10
70107;DHT22;57473;37.508;15.080;2023-01-10T11:32:39;12.30;81.90
70107;DHT22;57473;37.508;15.080;2023-01-10T11:35:25;12.20;82.60
70107;DHT22;57473;37.508;15.080;2023-01-10T11:38:20;12.20;83.90
70107;DHT22;57473;37.508;15.080;2023-01-10T11:44:29;12.30;83.80
70107;DHT22;57473;37.508;15.080;2023-01-10T11:47:09;12.10;83.10
70107;DHT22;57473;37.508;15.080;2023-01-10T12:03:34;12.10;78.50
70107;DHT22;57473;37.508;15.080;2023-01-10T12:06:06;12.80;73.30
70107;DHT22;57473;37.508;15.080;2023-01-10T12:08:37;13.20;71.30
70107;DHT22;57473;37.508;15.080;2023-01-10T12:11:51;13.50;63.60
70107;DHT22;57473;37.508;15.080;2023-01-10T12:13:59;14.00;62.40
70107;DHT22;57473;37.508;15.080;2023-01-10T12:16:29;14.70;56.30
70107;DHT22;57473;37.508;15.080;2023-01-10T12:19:02;15.10;54.20
70107;DHT22;57473;37.508;15.080;2023-01-10T12:21:39;15.20;54.50
70107;DHT22;57473;37.508;15.080;2023-01-10T12:24:21;15.40;52.40
70107;DHT22;57473;37.508;15.080;2023-01-10T12:26:51;15.40;52.00
70107;DHT22;57473;37.508;15.080;2023-01-10T12:29:25;15.60;53.20
70107;DHT22;57473;37.508;15.080;2023-01-10T12:31:55;15.50;50.50
70107;DHT22;57473;37.508;15.080;2023-01-10T12:34:39;15.40;50.80
70107;DHT22;57473;37.508;15.080;2023-01-10T12:37:23;15.50;51.10
70107;DHT22;57473;37.508;15.080;2023-01-10T12:40:20;15.70;50.60
70107;DHT22;57473;37.508;15.080;2023-01-10T12:42:56;16.10;48.80
70107;DHT22;57473;37.508;15.080;2023-01-10T12:45:55;16.40;48.70
70107;DHT22;57473;37.508;15.080;2023-01-10T12:48:28;17.10;47.70
70107;DHT22;57473;37.508;15.080;2023-01-10T12:51:01;17.40;46.00
70107;DHT22;57473;37.508;15.080;2023-01-10T12:53:38;17.60;43.70
70107;DHT22;57473;37.508;15.080;2023-01-10T12:56:12;17.80;43.40
70107;DHT22;57473;37.508;15.080;2023-01-10T12:58:47;17.70;42.90
70107;DHT22;57473;37.508;15.080;2023-01-10T13:01:18;17.50;43.50
70107;DHT22;57473;37.508;15.080;2023-01-10T13:03:52;17.20;44.30
70107;DHT22;57473;37.508;15.080;2023-01-10T13:06:34;16.80;44.40
70107;DHT22;57473;37.508;15.080;2023-01-10T13:09:21;16.40;44.90
70107;DHT22;57473;37.508;15.080;2023-01-10T13:15:31;15.80;47.10
70107;DHT22;57473;37.508;15.080;2023-01-10T13:18:25;15.70;46.60
70107;DHT22;57473;37.508;15.080;2023-01-10T13:21:05;15.60;46.70
70107;DHT22;57473;37.508;15.080;2023-01-10T13:24:15;15.60;46.70
70107;DHT22;57473;37.508;15.080;2023-01-10T13:26:57;15.80;46.50
70107;DHT22;57473;37.508;15.080;2023-01-10T13:29:37;15.80;44.20
70107;DHT22;57473;37.508;15.080;2023-01-10T13:34:50;15.80;45.00
70107;DHT22;57473;37.508;15.080;2023-01-10T13:37:44;15.80;45.00
70107;DHT22;57473;37.508;15.080;2023-01-10T13:40:25;15.80;45.10
70107;DHT22;57473;37.508;15.080;2023-01-10T13:43:37;15.70;44.40
70107;DHT22;57473;37.508;15.080;2023-01-10T13:51:19;15.50;44.80
70107;DHT22;57473;37.508;15.080;2023-01-10T13:53:56;15.50;44.90
70107;DHT22;57473;37.508;15.080;2023-01-10T14:05:03;15.20;43.30
70107;DHT22;57473;37.508;15.080;2023-01-10T14:10:17;15.10;45.60
70107;DHT22;57473;37.508;15.080;2023-01-10T14:13:03;15.00;45.80
70107;DHT22;57473;37.508;15.080;2023-01-10T14:15:40;14.90;46.00
70107;DHT22;57473;37.508;15.080;2023-01-10T14:18:23;14.70;49.00
70107;DHT22;57473;37.508;15.080;2023-01-10T14:20:57;14.00;55.00
70107;DHT22;57473;37.508;15.080;2023-01-10T14:23:47;13.30;55.90
70107;DHT22;57473;37.508;15.080;2023-01-10T14:26:36;12.90;56.40
70107;DHT22;57473;37.508;15.080;2023-01-10T14:29:09;12.60;58.90
70107;DHT22;57473;37.508;15.080;2023-01-10T14:31:44;12.40;58.00
70107;DHT22;57473;37.508;15.080;2023-01-10T14:34:20;12.40;59.00
70107;DHT22;57473;37.508;15.080;2023-01-10T14:36:58;12.40;59.70
70107;DHT22;57473;37.508;15.080;2023-01-10T14:39:32;12.40;59.30
70107;DHT22;57473;37.508;15.080;2023-01-10T14:42:06;12.40;58.50
70107;DHT22;57473;37.508;15.080;2023-01-10T14:44:47;12.40;57.40
70107;DHT22;57473;37.508;15.080;2023-01-10T14:47:32;12.40;58.70
70107;DHT22;57473;37.508;15.080;2023-01-10T14:50:00;12.50;59.40
70107;DHT22;57473;37.508;15.080;2023-01-10T14:52:33;12.50;59.40
70107;DHT22;57473;37.508;15.080;2023-01-10T14:55:15;12.50;58.90
70107;DHT22;57473;37.508;15.080;2023-01-10T15:00:31;12.60;56.60
70107;DHT22;57473;37.508;15.080;2023-01-10T15:03:02;12.70;57.30
70107;DHT22;57473;37.508;15.080;2023-01-10T15:06:06;12.70;57.80
70107;DHT22;57473;37.508;15.080;2023-01-10T15:08:39;12.60;58.30
70107;DHT22;57473;37.508;15.080;2023-01-10T15:11:11;12.60;53.50
70107;DHT22;57473;37.508;15.080;2023-01-10T15:14:12;12.80;52.40
70107;DHT22;57473;37.508;15.080;2023-01-10T15:16:59;12.90;52.90
70107;DHT22;57473;37.508;15.080;2023-01-10T15:19:39;12.90;55.10
70107;DHT22;57473;37.508;15.080;2023-01-10T15:22:33;12.60;58.10
70107;DHT22;57473;37.508;15.080;2023-01-10T15:25:23;12.50;58.40
70107;DHT22;57473;37.508;15.080;2023-01-10T15:27:56;12.40;58.90
70107;DHT22;57473;37.508;15.080;2023-01-10T15:30:28;12.40;60.40
70107;DHT22;57473;37.508;15.080;2023-01-10T15:33:30;12.50;59.50
70107;DHT22;57473;37.508;15.080;2023-01-10T15:36:11;12.40;58.10
70107;DHT22;57473;37.508;15.080;2023-01-10T15:38:43;12.40;57.40
70107;DHT22;57473;37.508;15.080;2023-01-10T15:41:23;12.50;55.80
70107;DHT22;57473;37.508;15.080;2023-01-10T15:43:53;12.50;56.10
70107;DHT22;57473;37.508;15.080;2023-01-10T15:46:23;12.50;57.20
70107;DHT22;57473;37.508;15.080;2023-01-10T15:48:59;12.40;57.70
70107;DHT22;57473;37.508;15.080;2023-01-10T15:51:39;12.40;56.30
70107;DHT22;57473;37.508;15.080;2023-01-10T15:57:15;12.60;55.00
70107;DHT22;57473;37.508;15.080;2023-01-10T15:59:45;12.50;57.90
70107;DHT22;57473;37.508;15.080;2023-01-10T16:02:32;12.40;57.20
70107;DHT22;57473;37.508;15.080;2023-01-10T16:05:14;12.50;53.70
70107;DHT22;57473;37.508;15.080;2023-01-10T16:07:45;12.60;52.20
70107;DHT22;57473;37.508;15.080;2023-01-10T16:10:21;12.70;52.00
70107;DHT22;57473;37.508;15.080;2023-01-10T16:12:50;12.70;52.10
70107;DHT22;57473;37.508;15.080;2023-01-10T16:15:39;12.80;52.20
70107;DHT22;57473;37.508;15.080;2023-01-10T16:18:08;12.80;50.70
70107;DHT22;57473;37.508;15.080;2023-01-10T16:20:43;12.90;48.70
70107;DHT22;57473;37.508;15.080;2023-01-10T16:23:27;13.00;45.60
70107;DHT22;57473;37.508;15.080;2023-01-10T16:26:02;13.10;44.10
70107;DHT22;57473;37.508;15.080;2023-01-10T16:28:31;13.30;46.60
70107;DHT22;57473;37.508;15.080;2023-01-10T16:31:20;13.40;50.10
70107;DHT22;57473;37.508;15.080;2023-01-10T16:33:50;13.30;53.00
70107;DHT22;57473;37.508;15.080;2023-01-10T16:36:19;13.20;54.00
70107;DHT22;57473;37.508;15.080;2023-01-10T16:38:47;13.10;55.30
70107;DHT22;57473;37.508;15.080;2023-01-10T16:41:17;13.00;54.60
70107;DHT22;57473;37.508;15.080;2023-01-10T16:44:03;13.00;51.00
70107;DHT22;57473;37.508;15.080;2023-01-10T16:46:33;13.10;47.60
70107;DHT22;57473;37.508;15.080;2023-01-10T16:49:39;13.00;52.00
70107;DHT22;57473;37.508;15.080;2023-01-10T16:52:14;12.20;64.90
70107;DHT22;57473;37.508;15.080;2023-01-10T16:54:42;11.10;74.80
70107;DHT22;57473;37.508;15.080;2023-01-10T16:57:09;10.20;82.60
70107;DHT22;57473;37.508;15.080;2023-01-10T16:59:41;9.50;90.90
70107;DHT22;57473;37.508;15.080;2023-01-10T17:02:15;9.20;95.90
70107;DHT22;57473;37.508;15.080;2023-01-10T17:04:49;8.90;99.90
70107;DHT22;57473;37.508;15.080;2023-01-10T17:07:20;8.80;99.90
70107;DHT22;57473;37.508;15.080;2023-01-10T17:09:47;8.80;99.90
70107;DHT22;57473;37.508;15.080;2023-01-10T17:12:17;8.70;99.90
70107;DHT22;57473;37.508;15.080;2023-01-10T17:14:45;8.60;99.90
70107;DHT22;57473;37.508;15.080;2023-01-10T17:17:19;8.40;99.90
70107;DHT22;57473;37.508;15.080;2023-01-10T17:19:49;8.40;99.90
70107;DHT22;57473;37.508;15.080;2023-01-10T17:22:20;8.40;99.90
70107;DHT22;57473;37.508;15.080;2023-01-10T17:24:48;8.30;99.90
70107;DHT22;57473;37.508;15.080;2023-01-10T17:27:15;8.30;99.90
70107;DHT22;57473;37.508;15.080;2023-01-10T17:29:43;8.20;99.90
70107;DHT22;57473;37.508;15.080;2023-01-10T17:32:11;8.20;99.90
70107;DHT22;57473;37.508;15.080;2023-01-10T17:34:38;8.10;99.90
70107;DHT22;57473;37.508;15.080;2023-01-10T17:37:06;8.10;99.90
70107;DHT22;57473;37.508;15.080;2023-01-10T17:39:43;8.20;99.90
70107;DHT22;57473;37.508;15.080;2023-01-10T17:42:12;8.20;99.90
70107;DHT22;57473;37.508;15.080;2023-01-10T17:44:39;8.10;99.90
70107;DHT22;57473;37.508;15.080;2023-01-10T17:47:06;8.00;99.90